<?xml version="1.0" encoding="UTF-8" standalone="no" ?>
<gpx xmlns="http://www.topografix.com/GPX/1/1" creator="MapSource 6.11.6" version="1.1" xmlns:xsi="http://www.w3.org/2001/XMLSchema-instance" xsi:schemaLocation="http://www.topografix.com/GPX/1/1 http://www.topografix.com/GPX/1/1/gpx.xsd">

  <metadata>
    <link href="http://www.garmin.com">
      <text>Garmin International</text>
    </link>
    <time>2009-01-04T12:57:31Z</time>
    <bounds maxlat="52.976106" maxlon="13.035042" minlat="52.965335" minlon="12.987406"/>
  </metadata>

  <trk>
    <name>Wanderung Um Den Wutzsee on GPSies.com</name>
    <extensions>
      <gpxx:TrackExtension xmlns:gpxx="http://www.garmin.com/xmlschemas/GpxExtensions/v3" xmlns:xsi="http://www.w3.org/2001/XMLSchema-instance" xsi:schemaLocation="http://www.garmin.com/xmlschemas/GpxExtensions/v3 http://www.garmin.com/xmlschemas/GpxExtensions/v3/GpxExtensionsv3.xsd">
        <gpxx:DisplayColor>White</gpxx:DisplayColor>
      </gpxx:TrackExtension>
    </extensions>
    <trkseg>
      <trkpt lat="52.970635" lon="12.988436">
        <time>2009-01-04T13:55:15Z</time>
      </trkpt>
      <trkpt lat="52.970570" lon="12.988543">
        <time>2009-01-04T13:55:19Z</time>
      </trkpt>
      <trkpt lat="52.970517" lon="12.988694">
        <time>2009-01-04T13:55:23Z</time>
      </trkpt>
      <trkpt lat="52.970452" lon="12.988844">
        <time>2009-01-04T13:55:28Z</time>
      </trkpt>
      <trkpt lat="52.970377" lon="12.988930">
        <time>2009-01-04T13:55:31Z</time>
      </trkpt>
      <trkpt lat="52.970291" lon="12.989123">
        <time>2009-01-04T13:55:37Z</time>
      </trkpt>
      <trkpt lat="52.970248" lon="12.989273">
        <time>2009-01-04T13:55:41Z</time>
      </trkpt>
      <trkpt lat="52.970206" lon="12.989445">
        <time>2009-01-04T13:55:46Z</time>
      </trkpt>
      <trkpt lat="52.970130" lon="12.989681">
        <time>2009-01-04T13:55:52Z</time>
      </trkpt>
      <trkpt lat="52.970120" lon="12.989831">
        <time>2009-01-04T13:55:56Z</time>
      </trkpt>
      <trkpt lat="52.970066" lon="12.990024">
        <time>2009-01-04T13:56:01Z</time>
      </trkpt>
      <trkpt lat="52.970045" lon="12.990196">
        <time>2009-01-04T13:56:05Z</time>
      </trkpt>
      <trkpt lat="52.970206" lon="12.990453">
        <time>2009-01-04T13:56:14Z</time>
      </trkpt>
      <trkpt lat="52.970281" lon="12.990561">
        <time>2009-01-04T13:56:18Z</time>
      </trkpt>
      <trkpt lat="52.970334" lon="12.990689">
        <time>2009-01-04T13:56:22Z</time>
      </trkpt>
      <trkpt lat="52.970538" lon="12.990818">
        <time>2009-01-04T13:56:31Z</time>
      </trkpt>
      <trkpt lat="52.970635" lon="12.990839">
        <time>2009-01-04T13:56:35Z</time>
      </trkpt>
      <trkpt lat="52.970817" lon="12.991011">
        <time>2009-01-04T13:56:43Z</time>
      </trkpt>
      <trkpt lat="52.970881" lon="12.991118">
        <time>2009-01-04T13:56:47Z</time>
      </trkpt>
      <trkpt lat="52.970731" lon="12.991333">
        <time>2009-01-04T13:56:54Z</time>
      </trkpt>
      <trkpt lat="52.970656" lon="12.991419">
        <time>2009-01-04T13:56:58Z</time>
      </trkpt>
      <trkpt lat="52.970570" lon="12.991719">
        <time>2009-01-04T13:57:06Z</time>
      </trkpt>
      <trkpt lat="52.970527" lon="12.991891">
        <time>2009-01-04T13:57:11Z</time>
      </trkpt>
      <trkpt lat="52.970334" lon="12.992320">
        <time>2009-01-04T13:57:24Z</time>
      </trkpt>
      <trkpt lat="52.970270" lon="12.992556">
        <time>2009-01-04T13:57:30Z</time>
      </trkpt>
      <trkpt lat="52.970216" lon="12.992685">
        <time>2009-01-04T13:57:34Z</time>
      </trkpt>
      <trkpt lat="52.970173" lon="12.992835">
        <time>2009-01-04T13:57:38Z</time>
      </trkpt>
      <trkpt lat="52.970141" lon="12.992985">
        <time>2009-01-04T13:57:41Z</time>
      </trkpt>
      <trkpt lat="52.970034" lon="12.993286">
        <time>2009-01-04T13:57:50Z</time>
      </trkpt>
      <trkpt lat="52.970002" lon="12.993436">
        <time>2009-01-04T13:57:54Z</time>
      </trkpt>
      <trkpt lat="52.969969" lon="12.993758">
        <time>2009-01-04T13:58:02Z</time>
      </trkpt>
      <trkpt lat="52.969959" lon="12.994058">
        <time>2009-01-04T13:58:09Z</time>
      </trkpt>
      <trkpt lat="52.969948" lon="12.994208">
        <time>2009-01-04T13:58:12Z</time>
      </trkpt>
      <trkpt lat="52.969948" lon="12.994509">
        <time>2009-01-04T13:58:20Z</time>
      </trkpt>
      <trkpt lat="52.969894" lon="12.994809">
        <time>2009-01-04T13:58:27Z</time>
      </trkpt>
      <trkpt lat="52.969894" lon="12.994959">
        <time>2009-01-04T13:58:31Z</time>
      </trkpt>
      <trkpt lat="52.969916" lon="12.995260">
        <time>2009-01-04T13:58:38Z</time>
      </trkpt>
      <trkpt lat="52.969841" lon="12.995539">
        <time>2009-01-04T13:58:45Z</time>
      </trkpt>
      <trkpt lat="52.969776" lon="12.995689">
        <time>2009-01-04T13:58:50Z</time>
      </trkpt>
      <trkpt lat="52.969648" lon="12.995946">
        <time>2009-01-04T13:58:58Z</time>
      </trkpt>
      <trkpt lat="52.969594" lon="12.996075">
        <time>2009-01-04T13:59:02Z</time>
      </trkpt>
      <trkpt lat="52.969476" lon="12.996376">
        <time>2009-01-04T13:59:10Z</time>
      </trkpt>
      <trkpt lat="52.969422" lon="12.996547">
        <time>2009-01-04T13:59:15Z</time>
      </trkpt>
      <trkpt lat="52.969358" lon="12.996848">
        <time>2009-01-04T13:59:23Z</time>
      </trkpt>
      <trkpt lat="52.969347" lon="12.996998">
        <time>2009-01-04T13:59:26Z</time>
      </trkpt>
      <trkpt lat="52.969283" lon="12.997298">
        <time>2009-01-04T13:59:34Z</time>
      </trkpt>
      <trkpt lat="52.969229" lon="12.997599">
        <time>2009-01-04T13:59:42Z</time>
      </trkpt>
      <trkpt lat="52.969208" lon="12.997749">
        <time>2009-01-04T13:59:45Z</time>
      </trkpt>
      <trkpt lat="52.969165" lon="12.998049">
        <time>2009-01-04T13:59:53Z</time>
      </trkpt>
      <trkpt lat="52.969111" lon="12.998371">
        <time>2009-01-04T14:00:01Z</time>
      </trkpt>
      <trkpt lat="52.969079" lon="12.998521">
        <time>2009-01-04T14:00:05Z</time>
      </trkpt>
      <trkpt lat="52.969058" lon="12.998843">
        <time>2009-01-04T14:00:13Z</time>
      </trkpt>
      <trkpt lat="52.969036" lon="12.999015">
        <time>2009-01-04T14:00:17Z</time>
      </trkpt>
      <trkpt lat="52.968961" lon="12.999294">
        <time>2009-01-04T14:00:24Z</time>
      </trkpt>
      <trkpt lat="52.968886" lon="12.999444">
        <time>2009-01-04T14:00:29Z</time>
      </trkpt>
      <trkpt lat="52.968800" lon="12.999787">
        <time>2009-01-04T14:00:38Z</time>
      </trkpt>
      <trkpt lat="52.968725" lon="12.999895">
        <time>2009-01-04T14:00:42Z</time>
      </trkpt>
      <trkpt lat="52.968596" lon="13.000131">
        <time>2009-01-04T14:00:49Z</time>
      </trkpt>
      <trkpt lat="52.968521" lon="13.000281">
        <time>2009-01-04T14:00:54Z</time>
      </trkpt>
      <trkpt lat="52.968478" lon="13.000581">
        <time>2009-01-04T14:01:02Z</time>
      </trkpt>
      <trkpt lat="52.968500" lon="13.000796">
        <time>2009-01-04T14:01:07Z</time>
      </trkpt>
      <trkpt lat="52.968596" lon="13.001096">
        <time>2009-01-04T14:01:15Z</time>
      </trkpt>
      <trkpt lat="52.968607" lon="13.001246">
        <time>2009-01-04T14:01:19Z</time>
      </trkpt>
      <trkpt lat="52.968618" lon="13.001547">
        <time>2009-01-04T14:01:26Z</time>
      </trkpt>
      <trkpt lat="52.968650" lon="13.001697">
        <time>2009-01-04T14:01:30Z</time>
      </trkpt>
      <trkpt lat="52.968682" lon="13.001997">
        <time>2009-01-04T14:01:37Z</time>
      </trkpt>
      <trkpt lat="52.968725" lon="13.002341">
        <time>2009-01-04T14:01:46Z</time>
      </trkpt>
      <trkpt lat="52.968725" lon="13.002491">
        <time>2009-01-04T14:01:49Z</time>
      </trkpt>
      <trkpt lat="52.968736" lon="13.002706">
        <time>2009-01-04T14:01:54Z</time>
      </trkpt>
      <trkpt lat="52.968736" lon="13.003006">
        <time>2009-01-04T14:02:02Z</time>
      </trkpt>
      <trkpt lat="52.968757" lon="13.003392">
        <time>2009-01-04T14:02:11Z</time>
      </trkpt>
      <trkpt lat="52.968800" lon="13.003542">
        <time>2009-01-04T14:02:15Z</time>
      </trkpt>
      <trkpt lat="52.968907" lon="13.003864">
        <time>2009-01-04T14:02:24Z</time>
      </trkpt>
      <trkpt lat="52.968940" lon="13.004014">
        <time>2009-01-04T14:02:28Z</time>
      </trkpt>
      <trkpt lat="52.968961" lon="13.004165">
        <time>2009-01-04T14:02:31Z</time>
      </trkpt>
      <trkpt lat="52.969004" lon="13.004422">
        <time>2009-01-04T14:02:38Z</time>
      </trkpt>
      <trkpt lat="52.969111" lon="13.004680">
        <time>2009-01-04T14:02:45Z</time>
      </trkpt>
      <trkpt lat="52.969208" lon="13.004916">
        <time>2009-01-04T14:02:52Z</time>
      </trkpt>
      <trkpt lat="52.969251" lon="13.005130">
        <time>2009-01-04T14:02:58Z</time>
      </trkpt>
      <trkpt lat="52.969294" lon="13.005431">
        <time>2009-01-04T14:03:05Z</time>
      </trkpt>
      <trkpt lat="52.969294" lon="13.005602">
        <time>2009-01-04T14:03:09Z</time>
      </trkpt>
      <trkpt lat="52.969251" lon="13.005817">
        <time>2009-01-04T14:03:15Z</time>
      </trkpt>
      <trkpt lat="52.969197" lon="13.006117">
        <time>2009-01-04T14:03:22Z</time>
      </trkpt>
      <trkpt lat="52.969208" lon="13.006375">
        <time>2009-01-04T14:03:29Z</time>
      </trkpt>
      <trkpt lat="52.969218" lon="13.006611">
        <time>2009-01-04T14:03:34Z</time>
      </trkpt>
      <trkpt lat="52.969251" lon="13.006911">
        <time>2009-01-04T14:03:42Z</time>
      </trkpt>
      <trkpt lat="52.969240" lon="13.007104">
        <time>2009-01-04T14:03:46Z</time>
      </trkpt>
      <trkpt lat="52.969154" lon="13.007405">
        <time>2009-01-04T14:03:54Z</time>
      </trkpt>
      <trkpt lat="52.969068" lon="13.007512">
        <time>2009-01-04T14:03:59Z</time>
      </trkpt>
      <trkpt lat="52.968993" lon="13.007748">
        <time>2009-01-04T14:04:05Z</time>
      </trkpt>
      <trkpt lat="52.968940" lon="13.007941">
        <time>2009-01-04T14:04:10Z</time>
      </trkpt>
      <trkpt lat="52.968875" lon="13.008285">
        <time>2009-01-04T14:04:19Z</time>
      </trkpt>
      <trkpt lat="52.968822" lon="13.008413">
        <time>2009-01-04T14:04:23Z</time>
      </trkpt>
      <trkpt lat="52.968725" lon="13.008714">
        <time>2009-01-04T14:04:31Z</time>
      </trkpt>
      <trkpt lat="52.968693" lon="13.008864">
        <time>2009-01-04T14:04:35Z</time>
      </trkpt>
      <trkpt lat="52.968585" lon="13.009121">
        <time>2009-01-04T14:04:42Z</time>
      </trkpt>
      <trkpt lat="52.968532" lon="13.009293">
        <time>2009-01-04T14:04:47Z</time>
      </trkpt>
      <trkpt lat="52.968446" lon="13.009593">
        <time>2009-01-04T14:04:55Z</time>
      </trkpt>
      <trkpt lat="52.968382" lon="13.009744">
        <time>2009-01-04T14:04:59Z</time>
      </trkpt>
      <trkpt lat="52.968242" lon="13.010001">
        <time>2009-01-04T14:05:08Z</time>
      </trkpt>
      <trkpt lat="52.968189" lon="13.010151">
        <time>2009-01-04T14:05:12Z</time>
      </trkpt>
      <trkpt lat="52.968038" lon="13.010323">
        <time>2009-01-04T14:05:19Z</time>
      </trkpt>
      <trkpt lat="52.967845" lon="13.010495">
        <time>2009-01-04T14:05:28Z</time>
      </trkpt>
      <trkpt lat="52.967716" lon="13.010516">
        <time>2009-01-04T14:05:33Z</time>
      </trkpt>
      <trkpt lat="52.967609" lon="13.010538">
        <time>2009-01-04T14:05:38Z</time>
      </trkpt>
      <trkpt lat="52.967491" lon="13.010602">
        <time>2009-01-04T14:05:42Z</time>
      </trkpt>
      <trkpt lat="52.967309" lon="13.010688">
        <time>2009-01-04T14:05:50Z</time>
      </trkpt>
      <trkpt lat="52.967223" lon="13.010795">
        <time>2009-01-04T14:05:54Z</time>
      </trkpt>
      <trkpt lat="52.967041" lon="13.010881">
        <time>2009-01-04T14:06:02Z</time>
      </trkpt>
      <trkpt lat="52.966955" lon="13.010967">
        <time>2009-01-04T14:06:06Z</time>
      </trkpt>
      <trkpt lat="52.966783" lon="13.011160">
        <time>2009-01-04T14:06:14Z</time>
      </trkpt>
      <trkpt lat="52.966686" lon="13.011267">
        <time>2009-01-04T14:06:19Z</time>
      </trkpt>
      <trkpt lat="52.966536" lon="13.011460">
        <time>2009-01-04T14:06:27Z</time>
      </trkpt>
      <trkpt lat="52.966440" lon="13.011546">
        <time>2009-01-04T14:06:31Z</time>
      </trkpt>
      <trkpt lat="52.966332" lon="13.011868">
        <time>2009-01-04T14:06:40Z</time>
      </trkpt>
      <trkpt lat="52.966247" lon="13.011997">
        <time>2009-01-04T14:06:44Z</time>
      </trkpt>
      <trkpt lat="52.966107" lon="13.012168">
        <time>2009-01-04T14:06:51Z</time>
      </trkpt>
      <trkpt lat="52.966000" lon="13.012297">
        <time>2009-01-04T14:06:57Z</time>
      </trkpt>
      <trkpt lat="52.965817" lon="13.012469">
        <time>2009-01-04T14:07:05Z</time>
      </trkpt>
      <trkpt lat="52.965753" lon="13.012576">
        <time>2009-01-04T14:07:09Z</time>
      </trkpt>
      <trkpt lat="52.965667" lon="13.012898">
        <time>2009-01-04T14:07:17Z</time>
      </trkpt>
      <trkpt lat="52.965635" lon="13.013070">
        <time>2009-01-04T14:07:22Z</time>
      </trkpt>
      <trkpt lat="52.965571" lon="13.013391">
        <time>2009-01-04T14:07:30Z</time>
      </trkpt>
      <trkpt lat="52.965528" lon="13.013542">
        <time>2009-01-04T14:07:34Z</time>
      </trkpt>
      <trkpt lat="52.965474" lon="13.013842">
        <time>2009-01-04T14:07:41Z</time>
      </trkpt>
      <trkpt lat="52.965463" lon="13.013992">
        <time>2009-01-04T14:07:45Z</time>
      </trkpt>
      <trkpt lat="52.965420" lon="13.014314">
        <time>2009-01-04T14:07:53Z</time>
      </trkpt>
      <trkpt lat="52.965378" lon="13.014657">
        <time>2009-01-04T14:08:01Z</time>
      </trkpt>
      <trkpt lat="52.965345" lon="13.014829">
        <time>2009-01-04T14:08:06Z</time>
      </trkpt>
      <trkpt lat="52.965335" lon="13.015001">
        <time>2009-01-04T14:08:10Z</time>
      </trkpt>
      <trkpt lat="52.965345" lon="13.015451">
        <time>2009-01-04T14:08:21Z</time>
      </trkpt>
      <trkpt lat="52.965378" lon="13.015645">
        <time>2009-01-04T14:08:26Z</time>
      </trkpt>
      <trkpt lat="52.965420" lon="13.015795">
        <time>2009-01-04T14:08:30Z</time>
      </trkpt>
      <trkpt lat="52.965474" lon="13.015966">
        <time>2009-01-04T14:08:34Z</time>
      </trkpt>
      <trkpt lat="52.965571" lon="13.016245">
        <time>2009-01-04T14:08:42Z</time>
      </trkpt>
      <trkpt lat="52.965581" lon="13.016546">
        <time>2009-01-04T14:08:49Z</time>
      </trkpt>
      <trkpt lat="52.965614" lon="13.016696">
        <time>2009-01-04T14:08:53Z</time>
      </trkpt>
      <trkpt lat="52.965678" lon="13.016996">
        <time>2009-01-04T14:09:01Z</time>
      </trkpt>
      <trkpt lat="52.965635" lon="13.017297">
        <time>2009-01-04T14:09:08Z</time>
      </trkpt>
      <trkpt lat="52.965592" lon="13.017468">
        <time>2009-01-04T14:09:13Z</time>
      </trkpt>
      <trkpt lat="52.965699" lon="13.017726">
        <time>2009-01-04T14:09:20Z</time>
      </trkpt>
      <trkpt lat="52.965775" lon="13.017812">
        <time>2009-01-04T14:09:24Z</time>
      </trkpt>
      <trkpt lat="52.965978" lon="13.017833">
        <time>2009-01-04T14:09:32Z</time>
      </trkpt>
      <trkpt lat="52.966043" lon="13.017941">
        <time>2009-01-04T14:09:36Z</time>
      </trkpt>
      <trkpt lat="52.966139" lon="13.018284">
        <time>2009-01-04T14:09:45Z</time>
      </trkpt>
      <trkpt lat="52.966225" lon="13.018370">
        <time>2009-01-04T14:09:49Z</time>
      </trkpt>
      <trkpt lat="52.966322" lon="13.018649">
        <time>2009-01-04T14:09:57Z</time>
      </trkpt>
      <trkpt lat="52.966397" lon="13.018756">
        <time>2009-01-04T14:10:01Z</time>
      </trkpt>
      <trkpt lat="52.966547" lon="13.019099">
        <time>2009-01-04T14:10:11Z</time>
      </trkpt>
      <trkpt lat="52.966601" lon="13.019249">
        <time>2009-01-04T14:10:15Z</time>
      </trkpt>
      <trkpt lat="52.966654" lon="13.019400">
        <time>2009-01-04T14:10:19Z</time>
      </trkpt>
      <trkpt lat="52.966762" lon="13.019679">
        <time>2009-01-04T14:10:27Z</time>
      </trkpt>
      <trkpt lat="52.966837" lon="13.019958">
        <time>2009-01-04T14:10:35Z</time>
      </trkpt>
      <trkpt lat="52.966858" lon="13.020108">
        <time>2009-01-04T14:10:38Z</time>
      </trkpt>
      <trkpt lat="52.966805" lon="13.020430">
        <time>2009-01-04T14:10:46Z</time>
      </trkpt>
      <trkpt lat="52.966751" lon="13.020601">
        <time>2009-01-04T14:10:51Z</time>
      </trkpt>
      <trkpt lat="52.966654" lon="13.020902">
        <time>2009-01-04T14:10:59Z</time>
      </trkpt>
      <trkpt lat="52.966654" lon="13.021073">
        <time>2009-01-04T14:11:03Z</time>
      </trkpt>
      <trkpt lat="52.966740" lon="13.021352">
        <time>2009-01-04T14:11:11Z</time>
      </trkpt>
      <trkpt lat="52.966719" lon="13.021502">
        <time>2009-01-04T14:11:15Z</time>
      </trkpt>
      <trkpt lat="52.966729" lon="13.021824">
        <time>2009-01-04T14:11:22Z</time>
      </trkpt>
      <trkpt lat="52.966751" lon="13.021996">
        <time>2009-01-04T14:11:27Z</time>
      </trkpt>
      <trkpt lat="52.966762" lon="13.022318">
        <time>2009-01-04T14:11:34Z</time>
      </trkpt>
      <trkpt lat="52.966708" lon="13.022640">
        <time>2009-01-04T14:11:42Z</time>
      </trkpt>
      <trkpt lat="52.966708" lon="13.022790">
        <time>2009-01-04T14:11:46Z</time>
      </trkpt>
      <trkpt lat="52.966740" lon="13.023090">
        <time>2009-01-04T14:11:53Z</time>
      </trkpt>
      <trkpt lat="52.966719" lon="13.023391">
        <time>2009-01-04T14:12:01Z</time>
      </trkpt>
      <trkpt lat="52.966686" lon="13.023541">
        <time>2009-01-04T14:12:05Z</time>
      </trkpt>
      <trkpt lat="52.966654" lon="13.023863">
        <time>2009-01-04T14:12:12Z</time>
      </trkpt>
      <trkpt lat="52.966654" lon="13.024013">
        <time>2009-01-04T14:12:16Z</time>
      </trkpt>
      <trkpt lat="52.966633" lon="13.024378">
        <time>2009-01-04T14:12:25Z</time>
      </trkpt>
      <trkpt lat="52.966611" lon="13.024571">
        <time>2009-01-04T14:12:30Z</time>
      </trkpt>
      <trkpt lat="52.966515" lon="13.024850">
        <time>2009-01-04T14:12:37Z</time>
      </trkpt>
      <trkpt lat="52.966429" lon="13.024914">
        <time>2009-01-04T14:12:41Z</time>
      </trkpt>
      <trkpt lat="52.966418" lon="13.025215">
        <time>2009-01-04T14:12:48Z</time>
      </trkpt>
      <trkpt lat="52.966418" lon="13.025558">
        <time>2009-01-04T14:12:57Z</time>
      </trkpt>
      <trkpt lat="52.966386" lon="13.025730">
        <time>2009-01-04T14:13:01Z</time>
      </trkpt>
      <trkpt lat="52.966257" lon="13.025966">
        <time>2009-01-04T14:13:09Z</time>
      </trkpt>
      <trkpt lat="52.966236" lon="13.026116">
        <time>2009-01-04T14:13:12Z</time>
      </trkpt>
      <trkpt lat="52.966118" lon="13.026395">
        <time>2009-01-04T14:13:21Z</time>
      </trkpt>
      <trkpt lat="52.966064" lon="13.026545">
        <time>2009-01-04T14:13:25Z</time>
      </trkpt>
      <trkpt lat="52.965946" lon="13.026781">
        <time>2009-01-04T14:13:32Z</time>
      </trkpt>
      <trkpt lat="52.965893" lon="13.026974">
        <time>2009-01-04T14:13:37Z</time>
      </trkpt>
      <trkpt lat="52.965850" lon="13.027296">
        <time>2009-01-04T14:13:45Z</time>
      </trkpt>
      <trkpt lat="52.965796" lon="13.027446">
        <time>2009-01-04T14:13:50Z</time>
      </trkpt>
      <trkpt lat="52.965699" lon="13.027747">
        <time>2009-01-04T14:13:58Z</time>
      </trkpt>
      <trkpt lat="52.965635" lon="13.027875">
        <time>2009-01-04T14:14:02Z</time>
      </trkpt>
      <trkpt lat="52.965571" lon="13.028176">
        <time>2009-01-04T14:14:09Z</time>
      </trkpt>
      <trkpt lat="52.965517" lon="13.028326">
        <time>2009-01-04T14:14:14Z</time>
      </trkpt>
      <trkpt lat="52.965474" lon="13.028626">
        <time>2009-01-04T14:14:21Z</time>
      </trkpt>
      <trkpt lat="52.965474" lon="13.028927">
        <time>2009-01-04T14:14:28Z</time>
      </trkpt>
      <trkpt lat="52.965485" lon="13.029099">
        <time>2009-01-04T14:14:33Z</time>
      </trkpt>
      <trkpt lat="52.965463" lon="13.029442">
        <time>2009-01-04T14:14:41Z</time>
      </trkpt>
      <trkpt lat="52.965442" lon="13.029613">
        <time>2009-01-04T14:14:45Z</time>
      </trkpt>
      <trkpt lat="52.965453" lon="13.029957">
        <time>2009-01-04T14:14:53Z</time>
      </trkpt>
      <trkpt lat="52.965442" lon="13.030128">
        <time>2009-01-04T14:14:58Z</time>
      </trkpt>
      <trkpt lat="52.965388" lon="13.030429">
        <time>2009-01-04T14:15:05Z</time>
      </trkpt>
      <trkpt lat="52.965388" lon="13.030622">
        <time>2009-01-04T14:15:10Z</time>
      </trkpt>
      <trkpt lat="52.965399" lon="13.030922">
        <time>2009-01-04T14:15:17Z</time>
      </trkpt>
      <trkpt lat="52.965442" lon="13.031223">
        <time>2009-01-04T14:15:24Z</time>
      </trkpt>
      <trkpt lat="52.965410" lon="13.031373">
        <time>2009-01-04T14:15:28Z</time>
      </trkpt>
      <trkpt lat="52.965474" lon="13.031673">
        <time>2009-01-04T14:15:36Z</time>
      </trkpt>
      <trkpt lat="52.965571" lon="13.031909">
        <time>2009-01-04T14:15:43Z</time>
      </trkpt>
      <trkpt lat="52.965592" lon="13.032060">
        <time>2009-01-04T14:15:47Z</time>
      </trkpt>
      <trkpt lat="52.965753" lon="13.032317">
        <time>2009-01-04T14:15:56Z</time>
      </trkpt>
      <trkpt lat="52.965839" lon="13.032424">
        <time>2009-01-04T14:16:00Z</time>
      </trkpt>
      <trkpt lat="52.965893" lon="13.032575">
        <time>2009-01-04T14:16:04Z</time>
      </trkpt>
      <trkpt lat="52.966032" lon="13.032789">
        <time>2009-01-04T14:16:12Z</time>
      </trkpt>
      <trkpt lat="52.966161" lon="13.033047">
        <time>2009-01-04T14:16:20Z</time>
      </trkpt>
      <trkpt lat="52.966204" lon="13.033197">
        <time>2009-01-04T14:16:24Z</time>
      </trkpt>
      <trkpt lat="52.966343" lon="13.033497">
        <time>2009-01-04T14:16:33Z</time>
      </trkpt>
      <trkpt lat="52.966408" lon="13.033626">
        <time>2009-01-04T14:16:37Z</time>
      </trkpt>
      <trkpt lat="52.966568" lon="13.033841">
        <time>2009-01-04T14:16:45Z</time>
      </trkpt>
      <trkpt lat="52.966654" lon="13.034012">
        <time>2009-01-04T14:16:51Z</time>
      </trkpt>
      <trkpt lat="52.966719" lon="13.034120">
        <time>2009-01-04T14:16:54Z</time>
      </trkpt>
      <trkpt lat="52.966901" lon="13.034227">
        <time>2009-01-04T14:17:02Z</time>
      </trkpt>
      <trkpt lat="52.967073" lon="13.034356">
        <time>2009-01-04T14:17:10Z</time>
      </trkpt>
      <trkpt lat="52.967169" lon="13.034356">
        <time>2009-01-04T14:17:13Z</time>
      </trkpt>
      <trkpt lat="52.967373" lon="13.034420">
        <time>2009-01-04T14:17:22Z</time>
      </trkpt>
      <trkpt lat="52.967523" lon="13.034484">
        <time>2009-01-04T14:17:28Z</time>
      </trkpt>
      <trkpt lat="52.967631" lon="13.034592">
        <time>2009-01-04T14:17:33Z</time>
      </trkpt>
      <trkpt lat="52.967792" lon="13.034785">
        <time>2009-01-04T14:17:41Z</time>
      </trkpt>
      <trkpt lat="52.967899" lon="13.034871">
        <time>2009-01-04T14:17:46Z</time>
      </trkpt>
      <trkpt lat="52.967995" lon="13.034956">
        <time>2009-01-04T14:17:50Z</time>
      </trkpt>
      <trkpt lat="52.968189" lon="13.035042">
        <time>2009-01-04T14:17:58Z</time>
      </trkpt>
      <trkpt lat="52.968285" lon="13.035021">
        <time>2009-01-04T14:18:02Z</time>
      </trkpt>
      <trkpt lat="52.968510" lon="13.034999">
        <time>2009-01-04T14:18:11Z</time>
      </trkpt>
      <trkpt lat="52.968607" lon="13.034999">
        <time>2009-01-04T14:18:15Z</time>
      </trkpt>
      <trkpt lat="52.968811" lon="13.034849">
        <time>2009-01-04T14:18:24Z</time>
      </trkpt>
      <trkpt lat="52.968907" lon="13.034763">
        <time>2009-01-04T14:18:28Z</time>
      </trkpt>
      <trkpt lat="52.969058" lon="13.034570">
        <time>2009-01-04T14:18:36Z</time>
      </trkpt>
      <trkpt lat="52.968972" lon="13.034377">
        <time>2009-01-04T14:18:41Z</time>
      </trkpt>
      <trkpt lat="52.968875" lon="13.034291">
        <time>2009-01-04T14:18:46Z</time>
      </trkpt>
      <trkpt lat="52.968746" lon="13.034270">
        <time>2009-01-04T14:18:51Z</time>
      </trkpt>
      <trkpt lat="52.968843" lon="13.034227">
        <time>2009-01-04T14:18:55Z</time>
      </trkpt>
      <trkpt lat="52.969036" lon="13.034227">
        <time>2009-01-04T14:19:03Z</time>
      </trkpt>
      <trkpt lat="52.969122" lon="13.034141">
        <time>2009-01-04T14:19:07Z</time>
      </trkpt>
      <trkpt lat="52.969015" lon="13.034420">
        <time>2009-01-04T14:19:15Z</time>
      </trkpt>
      <trkpt lat="52.969122" lon="13.034313">
        <time>2009-01-04T14:19:20Z</time>
      </trkpt>
      <trkpt lat="52.969229" lon="13.034034">
        <time>2009-01-04T14:19:28Z</time>
      </trkpt>
      <trkpt lat="52.969272" lon="13.033884">
        <time>2009-01-04T14:19:32Z</time>
      </trkpt>
      <trkpt lat="52.969315" lon="13.033583">
        <time>2009-01-04T14:19:39Z</time>
      </trkpt>
      <trkpt lat="52.969315" lon="13.033411">
        <time>2009-01-04T14:19:43Z</time>
      </trkpt>
      <trkpt lat="52.969240" lon="13.033111">
        <time>2009-01-04T14:19:51Z</time>
      </trkpt>
      <trkpt lat="52.969122" lon="13.032854">
        <time>2009-01-04T14:19:59Z</time>
      </trkpt>
      <trkpt lat="52.969079" lon="13.032703">
        <time>2009-01-04T14:20:03Z</time>
      </trkpt>
      <trkpt lat="52.968993" lon="13.032403">
        <time>2009-01-04T14:20:11Z</time>
      </trkpt>
      <trkpt lat="52.968940" lon="13.032253">
        <time>2009-01-04T14:20:15Z</time>
      </trkpt>
      <trkpt lat="52.968822" lon="13.031952">
        <time>2009-01-04T14:20:24Z</time>
      </trkpt>
      <trkpt lat="52.968779" lon="13.031802">
        <time>2009-01-04T14:20:28Z</time>
      </trkpt>
      <trkpt lat="52.968736" lon="13.031502">
        <time>2009-01-04T14:20:35Z</time>
      </trkpt>
      <trkpt lat="52.968725" lon="13.031352">
        <time>2009-01-04T14:20:39Z</time>
      </trkpt>
      <trkpt lat="52.968725" lon="13.031051">
        <time>2009-01-04T14:20:46Z</time>
      </trkpt>
      <trkpt lat="52.968779" lon="13.030729">
        <time>2009-01-04T14:20:54Z</time>
      </trkpt>
      <trkpt lat="52.968746" lon="13.030579">
        <time>2009-01-04T14:20:58Z</time>
      </trkpt>
      <trkpt lat="52.968693" lon="13.030279">
        <time>2009-01-04T14:21:06Z</time>
      </trkpt>
      <trkpt lat="52.968682" lon="13.029935">
        <time>2009-01-04T14:21:14Z</time>
      </trkpt>
      <trkpt lat="52.968714" lon="13.029785">
        <time>2009-01-04T14:21:18Z</time>
      </trkpt>
      <trkpt lat="52.968746" lon="13.029571">
        <time>2009-01-04T14:21:23Z</time>
      </trkpt>
      <trkpt lat="52.968671" lon="13.029227">
        <time>2009-01-04T14:21:32Z</time>
      </trkpt>
      <trkpt lat="52.968650" lon="13.029077">
        <time>2009-01-04T14:21:36Z</time>
      </trkpt>
      <trkpt lat="52.968661" lon="13.028777">
        <time>2009-01-04T14:21:43Z</time>
      </trkpt>
      <trkpt lat="52.968757" lon="13.028519">
        <time>2009-01-04T14:21:50Z</time>
      </trkpt>
      <trkpt lat="52.968768" lon="13.028347">
        <time>2009-01-04T14:21:54Z</time>
      </trkpt>
      <trkpt lat="52.968789" lon="13.028026">
        <time>2009-01-04T14:22:02Z</time>
      </trkpt>
      <trkpt lat="52.968822" lon="13.027854">
        <time>2009-01-04T14:22:07Z</time>
      </trkpt>
      <trkpt lat="52.968907" lon="13.027511">
        <time>2009-01-04T14:22:16Z</time>
      </trkpt>
      <trkpt lat="52.968918" lon="13.027339">
        <time>2009-01-04T14:22:20Z</time>
      </trkpt>
      <trkpt lat="52.969025" lon="13.027039">
        <time>2009-01-04T14:22:28Z</time>
      </trkpt>
      <trkpt lat="52.969090" lon="13.026931">
        <time>2009-01-04T14:22:32Z</time>
      </trkpt>
      <trkpt lat="52.969176" lon="13.026631">
        <time>2009-01-04T14:22:40Z</time>
      </trkpt>
      <trkpt lat="52.969208" lon="13.026481">
        <time>2009-01-04T14:22:44Z</time>
      </trkpt>
      <trkpt lat="52.969283" lon="13.026137">
        <time>2009-01-04T14:22:52Z</time>
      </trkpt>
      <trkpt lat="52.969304" lon="13.025987">
        <time>2009-01-04T14:22:56Z</time>
      </trkpt>
      <trkpt lat="52.969379" lon="13.025687">
        <time>2009-01-04T14:23:04Z</time>
      </trkpt>
      <trkpt lat="52.969433" lon="13.025537">
        <time>2009-01-04T14:23:08Z</time>
      </trkpt>
      <trkpt lat="52.969476" lon="13.025236">
        <time>2009-01-04T14:23:16Z</time>
      </trkpt>
      <trkpt lat="52.969465" lon="13.024914">
        <time>2009-01-04T14:23:23Z</time>
      </trkpt>
      <trkpt lat="52.969455" lon="13.024764">
        <time>2009-01-04T14:23:27Z</time>
      </trkpt>
      <trkpt lat="52.969444" lon="13.024464">
        <time>2009-01-04T14:23:34Z</time>
      </trkpt>
      <trkpt lat="52.969455" lon="13.024163">
        <time>2009-01-04T14:23:42Z</time>
      </trkpt>
      <trkpt lat="52.969465" lon="13.024013">
        <time>2009-01-04T14:23:45Z</time>
      </trkpt>
      <trkpt lat="52.969465" lon="13.023691">
        <time>2009-01-04T14:23:53Z</time>
      </trkpt>
      <trkpt lat="52.969487" lon="13.023369">
        <time>2009-01-04T14:24:01Z</time>
      </trkpt>
      <trkpt lat="52.969508" lon="13.023198">
        <time>2009-01-04T14:24:05Z</time>
      </trkpt>
      <trkpt lat="52.969594" lon="13.022940">
        <time>2009-01-04T14:24:12Z</time>
      </trkpt>
      <trkpt lat="52.969680" lon="13.022833">
        <time>2009-01-04T14:24:16Z</time>
      </trkpt>
      <trkpt lat="52.969787" lon="13.022597">
        <time>2009-01-04T14:24:24Z</time>
      </trkpt>
      <trkpt lat="52.969809" lon="13.022296">
        <time>2009-01-04T14:24:31Z</time>
      </trkpt>
      <trkpt lat="52.969851" lon="13.022125">
        <time>2009-01-04T14:24:35Z</time>
      </trkpt>
      <trkpt lat="52.969894" lon="13.021824">
        <time>2009-01-04T14:24:43Z</time>
      </trkpt>
      <trkpt lat="52.969894" lon="13.021653">
        <time>2009-01-04T14:24:47Z</time>
      </trkpt>
      <trkpt lat="52.969916" lon="13.021352">
        <time>2009-01-04T14:24:54Z</time>
      </trkpt>
      <trkpt lat="52.969959" lon="13.021052">
        <time>2009-01-04T14:25:02Z</time>
      </trkpt>
      <trkpt lat="52.970002" lon="13.020902">
        <time>2009-01-04T14:25:06Z</time>
      </trkpt>
      <trkpt lat="52.970045" lon="13.020580">
        <time>2009-01-04T14:25:14Z</time>
      </trkpt>
      <trkpt lat="52.970066" lon="13.020430">
        <time>2009-01-04T14:25:17Z</time>
      </trkpt>
      <trkpt lat="52.970034" lon="13.020108">
        <time>2009-01-04T14:25:25Z</time>
      </trkpt>
      <trkpt lat="52.970034" lon="13.019807">
        <time>2009-01-04T14:25:32Z</time>
      </trkpt>
      <trkpt lat="52.970023" lon="13.019657">
        <time>2009-01-04T14:25:36Z</time>
      </trkpt>
      <trkpt lat="52.969916" lon="13.019292">
        <time>2009-01-04T14:25:46Z</time>
      </trkpt>
      <trkpt lat="52.969862" lon="13.019142">
        <time>2009-01-04T14:25:50Z</time>
      </trkpt>
      <trkpt lat="52.969830" lon="13.018842">
        <time>2009-01-04T14:25:57Z</time>
      </trkpt>
      <trkpt lat="52.969819" lon="13.018692">
        <time>2009-01-04T14:26:01Z</time>
      </trkpt>
      <trkpt lat="52.969798" lon="13.018370">
        <time>2009-01-04T14:26:09Z</time>
      </trkpt>
      <trkpt lat="52.969798" lon="13.018177">
        <time>2009-01-04T14:26:13Z</time>
      </trkpt>
      <trkpt lat="52.969766" lon="13.017876">
        <time>2009-01-04T14:26:21Z</time>
      </trkpt>
      <trkpt lat="52.969733" lon="13.017704">
        <time>2009-01-04T14:26:25Z</time>
      </trkpt>
      <trkpt lat="52.969615" lon="13.017447">
        <time>2009-01-04T14:26:33Z</time>
      </trkpt>
      <trkpt lat="52.969497" lon="13.017189">
        <time>2009-01-04T14:26:41Z</time>
      </trkpt>
      <trkpt lat="52.969422" lon="13.017104">
        <time>2009-01-04T14:26:44Z</time>
      </trkpt>
      <trkpt lat="52.969261" lon="13.017104">
        <time>2009-01-04T14:26:51Z</time>
      </trkpt>
      <trkpt lat="52.969133" lon="13.016889">
        <time>2009-01-04T14:26:58Z</time>
      </trkpt>
      <trkpt lat="52.969015" lon="13.016632">
        <time>2009-01-04T14:27:06Z</time>
      </trkpt>
      <trkpt lat="52.968993" lon="13.016481">
        <time>2009-01-04T14:27:10Z</time>
      </trkpt>
      <trkpt lat="52.968972" lon="13.016181">
        <time>2009-01-04T14:27:17Z</time>
      </trkpt>
      <trkpt lat="52.968940" lon="13.015881">
        <time>2009-01-04T14:27:24Z</time>
      </trkpt>
      <trkpt lat="52.968918" lon="13.015730">
        <time>2009-01-04T14:27:28Z</time>
      </trkpt>
      <trkpt lat="52.968907" lon="13.015387">
        <time>2009-01-04T14:27:36Z</time>
      </trkpt>
      <trkpt lat="52.968940" lon="13.015237">
        <time>2009-01-04T14:27:40Z</time>
      </trkpt>
      <trkpt lat="52.969068" lon="13.015087">
        <time>2009-01-04T14:27:46Z</time>
      </trkpt>
      <trkpt lat="52.969154" lon="13.015001">
        <time>2009-01-04T14:27:51Z</time>
      </trkpt>
      <trkpt lat="52.969358" lon="13.014851">
        <time>2009-01-04T14:27:59Z</time>
      </trkpt>
      <trkpt lat="52.969444" lon="13.014765">
        <time>2009-01-04T14:28:03Z</time>
      </trkpt>
      <trkpt lat="52.969605" lon="13.014615">
        <time>2009-01-04T14:28:11Z</time>
      </trkpt>
      <trkpt lat="52.969733" lon="13.014357">
        <time>2009-01-04T14:28:19Z</time>
      </trkpt>
      <trkpt lat="52.969776" lon="13.014207">
        <time>2009-01-04T14:28:23Z</time>
      </trkpt>
      <trkpt lat="52.969905" lon="13.013992">
        <time>2009-01-04T14:28:30Z</time>
      </trkpt>
      <trkpt lat="52.969959" lon="13.013864">
        <time>2009-01-04T14:28:34Z</time>
      </trkpt>
      <trkpt lat="52.970109" lon="13.013692">
        <time>2009-01-04T14:28:41Z</time>
      </trkpt>
      <trkpt lat="52.970291" lon="13.013542">
        <time>2009-01-04T14:28:49Z</time>
      </trkpt>
      <trkpt lat="52.970388" lon="13.013499">
        <time>2009-01-04T14:28:53Z</time>
      </trkpt>
      <trkpt lat="52.970560" lon="13.013413">
        <time>2009-01-04T14:29:01Z</time>
      </trkpt>
      <trkpt lat="52.970667" lon="13.013349">
        <time>2009-01-04T14:29:05Z</time>
      </trkpt>
      <trkpt lat="52.970806" lon="13.013134">
        <time>2009-01-04T14:29:13Z</time>
      </trkpt>
      <trkpt lat="52.970946" lon="13.012919">
        <time>2009-01-04T14:29:20Z</time>
      </trkpt>
      <trkpt lat="52.971010" lon="13.012812">
        <time>2009-01-04T14:29:24Z</time>
      </trkpt>
      <trkpt lat="52.971107" lon="13.012512">
        <time>2009-01-04T14:29:32Z</time>
      </trkpt>
      <trkpt lat="52.971160" lon="13.012383">
        <time>2009-01-04T14:29:36Z</time>
      </trkpt>
      <trkpt lat="52.971278" lon="13.012147">
        <time>2009-01-04T14:29:43Z</time>
      </trkpt>
      <trkpt lat="52.971332" lon="13.012018">
        <time>2009-01-04T14:29:47Z</time>
      </trkpt>
      <trkpt lat="52.971364" lon="13.011718">
        <time>2009-01-04T14:29:55Z</time>
      </trkpt>
      <trkpt lat="52.971407" lon="13.011396">
        <time>2009-01-04T14:30:03Z</time>
      </trkpt>
      <trkpt lat="52.971450" lon="13.011246">
        <time>2009-01-04T14:30:07Z</time>
      </trkpt>
      <trkpt lat="52.971600" lon="13.011010">
        <time>2009-01-04T14:30:15Z</time>
      </trkpt>
      <trkpt lat="52.971675" lon="13.010924">
        <time>2009-01-04T14:30:18Z</time>
      </trkpt>
      <trkpt lat="52.971804" lon="13.010709">
        <time>2009-01-04T14:30:26Z</time>
      </trkpt>
      <trkpt lat="52.971954" lon="13.010452">
        <time>2009-01-04T14:30:34Z</time>
      </trkpt>
      <trkpt lat="52.972051" lon="13.010366">
        <time>2009-01-04T14:30:39Z</time>
      </trkpt>
      <trkpt lat="52.972233" lon="13.010194">
        <time>2009-01-04T14:30:47Z</time>
      </trkpt>
      <trkpt lat="52.972319" lon="13.010066">
        <time>2009-01-04T14:30:52Z</time>
      </trkpt>
      <trkpt lat="52.972416" lon="13.009958">
        <time>2009-01-04T14:30:56Z</time>
      </trkpt>
      <trkpt lat="52.972544" lon="13.009872">
        <time>2009-01-04T14:31:02Z</time>
      </trkpt>
      <trkpt lat="52.972577" lon="13.009529">
        <time>2009-01-04T14:31:10Z</time>
      </trkpt>
      <trkpt lat="52.972523" lon="13.009379">
        <time>2009-01-04T14:31:15Z</time>
      </trkpt>
      <trkpt lat="52.972437" lon="13.009636">
        <time>2009-01-04T14:31:22Z</time>
      </trkpt>
      <trkpt lat="52.972394" lon="13.009830">
        <time>2009-01-04T14:31:27Z</time>
      </trkpt>
      <trkpt lat="52.972469" lon="13.010087">
        <time>2009-01-04T14:31:34Z</time>
      </trkpt>
      <trkpt lat="52.972577" lon="13.010173">
        <time>2009-01-04T14:31:38Z</time>
      </trkpt>
      <trkpt lat="52.972780" lon="13.010237">
        <time>2009-01-04T14:31:47Z</time>
      </trkpt>
      <trkpt lat="52.972845" lon="13.010130">
        <time>2009-01-04T14:31:50Z</time>
      </trkpt>
      <trkpt lat="52.972952" lon="13.009830">
        <time>2009-01-04T14:31:59Z</time>
      </trkpt>
      <trkpt lat="52.973006" lon="13.009701">
        <time>2009-01-04T14:32:02Z</time>
      </trkpt>
      <trkpt lat="52.973124" lon="13.009443">
        <time>2009-01-04T14:32:10Z</time>
      </trkpt>
      <trkpt lat="52.973188" lon="13.009315">
        <time>2009-01-04T14:32:14Z</time>
      </trkpt>
      <trkpt lat="52.973317" lon="13.009100">
        <time>2009-01-04T14:32:22Z</time>
      </trkpt>
      <trkpt lat="52.973510" lon="13.009143">
        <time>2009-01-04T14:32:29Z</time>
      </trkpt>
      <trkpt lat="52.973607" lon="13.009121">
        <time>2009-01-04T14:32:33Z</time>
      </trkpt>
      <trkpt lat="52.973768" lon="13.008950">
        <time>2009-01-04T14:32:41Z</time>
      </trkpt>
      <trkpt lat="52.973918" lon="13.008778">
        <time>2009-01-04T14:32:48Z</time>
      </trkpt>
      <trkpt lat="52.973961" lon="13.008628">
        <time>2009-01-04T14:32:52Z</time>
      </trkpt>
      <trkpt lat="52.974132" lon="13.008478">
        <time>2009-01-04T14:33:00Z</time>
      </trkpt>
      <trkpt lat="52.974186" lon="13.008349">
        <time>2009-01-04T14:33:04Z</time>
      </trkpt>
      <trkpt lat="52.974282" lon="13.008070">
        <time>2009-01-04T14:33:12Z</time>
      </trkpt>
      <trkpt lat="52.974325" lon="13.007770">
        <time>2009-01-04T14:33:19Z</time>
      </trkpt>
      <trkpt lat="52.974336" lon="13.007619">
        <time>2009-01-04T14:33:23Z</time>
      </trkpt>
      <trkpt lat="52.974368" lon="13.007319">
        <time>2009-01-04T14:33:30Z</time>
      </trkpt>
      <trkpt lat="52.974401" lon="13.007019">
        <time>2009-01-04T14:33:37Z</time>
      </trkpt>
      <trkpt lat="52.974401" lon="13.006847">
        <time>2009-01-04T14:33:41Z</time>
      </trkpt>
      <trkpt lat="52.974401" lon="13.006546">
        <time>2009-01-04T14:33:49Z</time>
      </trkpt>
      <trkpt lat="52.974336" lon="13.006203">
        <time>2009-01-04T14:33:57Z</time>
      </trkpt>
      <trkpt lat="52.974336" lon="13.006031">
        <time>2009-01-04T14:34:02Z</time>
      </trkpt>
      <trkpt lat="52.974336" lon="13.005881">
        <time>2009-01-04T14:34:05Z</time>
      </trkpt>
      <trkpt lat="52.974293" lon="13.005559">
        <time>2009-01-04T14:34:13Z</time>
      </trkpt>
      <trkpt lat="52.974229" lon="13.005259">
        <time>2009-01-04T14:34:21Z</time>
      </trkpt>
      <trkpt lat="52.974175" lon="13.005066">
        <time>2009-01-04T14:34:26Z</time>
      </trkpt>
      <trkpt lat="52.974164" lon="13.004894">
        <time>2009-01-04T14:34:30Z</time>
      </trkpt>
      <trkpt lat="52.974186" lon="13.004594">
        <time>2009-01-04T14:34:37Z</time>
      </trkpt>
      <trkpt lat="52.974229" lon="13.004272">
        <time>2009-01-04T14:34:45Z</time>
      </trkpt>
      <trkpt lat="52.974207" lon="13.004122">
        <time>2009-01-04T14:34:49Z</time>
      </trkpt>
      <trkpt lat="52.974218" lon="13.003800">
        <time>2009-01-04T14:34:57Z</time>
      </trkpt>
      <trkpt lat="52.974229" lon="13.003500">
        <time>2009-01-04T14:35:04Z</time>
      </trkpt>
      <trkpt lat="52.974186" lon="13.003349">
        <time>2009-01-04T14:35:08Z</time>
      </trkpt>
      <trkpt lat="52.974154" lon="13.003049">
        <time>2009-01-04T14:35:15Z</time>
      </trkpt>
      <trkpt lat="52.974154" lon="13.002877">
        <time>2009-01-04T14:35:20Z</time>
      </trkpt>
      <trkpt lat="52.974154" lon="13.002577">
        <time>2009-01-04T14:35:27Z</time>
      </trkpt>
      <trkpt lat="52.974175" lon="13.002255">
        <time>2009-01-04T14:35:35Z</time>
      </trkpt>
      <trkpt lat="52.974186" lon="13.002105">
        <time>2009-01-04T14:35:38Z</time>
      </trkpt>
      <trkpt lat="52.974272" lon="13.001783">
        <time>2009-01-04T14:35:47Z</time>
      </trkpt>
      <trkpt lat="52.974315" lon="13.001633">
        <time>2009-01-04T14:35:51Z</time>
      </trkpt>
      <trkpt lat="52.974497" lon="13.001504">
        <time>2009-01-04T14:35:59Z</time>
      </trkpt>
      <trkpt lat="52.974626" lon="13.001268">
        <time>2009-01-04T14:36:06Z</time>
      </trkpt>
      <trkpt lat="52.974701" lon="13.001182">
        <time>2009-01-04T14:36:10Z</time>
      </trkpt>
      <trkpt lat="52.974830" lon="13.000946">
        <time>2009-01-04T14:36:18Z</time>
      </trkpt>
      <trkpt lat="52.974851" lon="13.000796">
        <time>2009-01-04T14:36:21Z</time>
      </trkpt>
      <trkpt lat="52.974958" lon="13.000495">
        <time>2009-01-04T14:36:30Z</time>
      </trkpt>
      <trkpt lat="52.975023" lon="13.000388">
        <time>2009-01-04T14:36:33Z</time>
      </trkpt>
      <trkpt lat="52.975184" lon="13.000216">
        <time>2009-01-04T14:36:41Z</time>
      </trkpt>
      <trkpt lat="52.975323" lon="13.000002">
        <time>2009-01-04T14:36:49Z</time>
      </trkpt>
      <trkpt lat="52.975388" lon="12.999873">
        <time>2009-01-04T14:36:53Z</time>
      </trkpt>
      <trkpt lat="52.975516" lon="12.999659">
        <time>2009-01-04T14:37:00Z</time>
      </trkpt>
      <trkpt lat="52.975656" lon="12.999465">
        <time>2009-01-04T14:37:07Z</time>
      </trkpt>
      <trkpt lat="52.975709" lon="12.999315">
        <time>2009-01-04T14:37:12Z</time>
      </trkpt>
      <trkpt lat="52.975838" lon="12.999079">
        <time>2009-01-04T14:37:19Z</time>
      </trkpt>
      <trkpt lat="52.975881" lon="12.998929">
        <time>2009-01-04T14:37:23Z</time>
      </trkpt>
      <trkpt lat="52.975935" lon="12.998607">
        <time>2009-01-04T14:37:31Z</time>
      </trkpt>
      <trkpt lat="52.975903" lon="12.998307">
        <time>2009-01-04T14:37:39Z</time>
      </trkpt>
      <trkpt lat="52.975924" lon="12.998157">
        <time>2009-01-04T14:37:42Z</time>
      </trkpt>
      <trkpt lat="52.975999" lon="12.997856">
        <time>2009-01-04T14:37:50Z</time>
      </trkpt>
      <trkpt lat="52.976031" lon="12.997706">
        <time>2009-01-04T14:37:54Z</time>
      </trkpt>
      <trkpt lat="52.976096" lon="12.997406">
        <time>2009-01-04T14:38:02Z</time>
      </trkpt>
      <trkpt lat="52.976106" lon="12.997105">
        <time>2009-01-04T14:38:09Z</time>
      </trkpt>
      <trkpt lat="52.976085" lon="12.996955">
        <time>2009-01-04T14:38:13Z</time>
      </trkpt>
      <trkpt lat="52.976042" lon="12.996654">
        <time>2009-01-04T14:38:20Z</time>
      </trkpt>
      <trkpt lat="52.975967" lon="12.996354">
        <time>2009-01-04T14:38:28Z</time>
      </trkpt>
      <trkpt lat="52.975924" lon="12.996204">
        <time>2009-01-04T14:38:32Z</time>
      </trkpt>
      <trkpt lat="52.975849" lon="12.995903">
        <time>2009-01-04T14:38:40Z</time>
      </trkpt>
      <trkpt lat="52.975827" lon="12.995753">
        <time>2009-01-04T14:38:44Z</time>
      </trkpt>
      <trkpt lat="52.975785" lon="12.995410">
        <time>2009-01-04T14:38:52Z</time>
      </trkpt>
      <trkpt lat="52.975720" lon="12.995303">
        <time>2009-01-04T14:38:56Z</time>
      </trkpt>
      <trkpt lat="52.975624" lon="12.995024">
        <time>2009-01-04T14:39:03Z</time>
      </trkpt>
      <trkpt lat="52.975559" lon="12.994702">
        <time>2009-01-04T14:39:12Z</time>
      </trkpt>
      <trkpt lat="52.975495" lon="12.994595">
        <time>2009-01-04T14:39:15Z</time>
      </trkpt>
      <trkpt lat="52.975473" lon="12.994273">
        <time>2009-01-04T14:39:23Z</time>
      </trkpt>
      <trkpt lat="52.975441" lon="12.994122">
        <time>2009-01-04T14:39:27Z</time>
      </trkpt>
      <trkpt lat="52.975355" lon="12.993822">
        <time>2009-01-04T14:39:35Z</time>
      </trkpt>
      <trkpt lat="52.975291" lon="12.993672">
        <time>2009-01-04T14:39:39Z</time>
      </trkpt>
      <trkpt lat="52.975152" lon="12.993457">
        <time>2009-01-04T14:39:47Z</time>
      </trkpt>
      <trkpt lat="52.975023" lon="12.993243">
        <time>2009-01-04T14:39:54Z</time>
      </trkpt>
      <trkpt lat="52.974937" lon="12.993157">
        <time>2009-01-04T14:39:58Z</time>
      </trkpt>
      <trkpt lat="52.974765" lon="12.993028">
        <time>2009-01-04T14:40:06Z</time>
      </trkpt>
      <trkpt lat="52.974594" lon="12.992857">
        <time>2009-01-04T14:40:14Z</time>
      </trkpt>
      <trkpt lat="52.974497" lon="12.992814">
        <time>2009-01-04T14:40:18Z</time>
      </trkpt>
      <trkpt lat="52.974304" lon="12.992857">
        <time>2009-01-04T14:40:26Z</time>
      </trkpt>
      <trkpt lat="52.974207" lon="12.992878">
        <time>2009-01-04T14:40:30Z</time>
      </trkpt>
      <trkpt lat="52.974014" lon="12.992899">
        <time>2009-01-04T14:40:37Z</time>
      </trkpt>
      <trkpt lat="52.973918" lon="12.992899">
        <time>2009-01-04T14:40:41Z</time>
      </trkpt>
      <trkpt lat="52.973714" lon="12.992878">
        <time>2009-01-04T14:40:49Z</time>
      </trkpt>
      <trkpt lat="52.973521" lon="12.992878">
        <time>2009-01-04T14:40:57Z</time>
      </trkpt>
      <trkpt lat="52.973435" lon="12.992792">
        <time>2009-01-04T14:41:01Z</time>
      </trkpt>
      <trkpt lat="52.973253" lon="12.992685">
        <time>2009-01-04T14:41:09Z</time>
      </trkpt>
      <trkpt lat="52.973210" lon="12.992535">
        <time>2009-01-04T14:41:13Z</time>
      </trkpt>
      <trkpt lat="52.973049" lon="12.992363">
        <time>2009-01-04T14:41:20Z</time>
      </trkpt>
      <trkpt lat="52.972898" lon="12.992191">
        <time>2009-01-04T14:41:28Z</time>
      </trkpt>
      <trkpt lat="52.972931" lon="12.992041">
        <time>2009-01-04T14:41:32Z</time>
      </trkpt>
      <trkpt lat="52.972909" lon="12.991741">
        <time>2009-01-04T14:41:39Z</time>
      </trkpt>
      <trkpt lat="52.972909" lon="12.991440">
        <time>2009-01-04T14:41:46Z</time>
      </trkpt>
      <trkpt lat="52.972877" lon="12.991269">
        <time>2009-01-04T14:41:50Z</time>
      </trkpt>
      <trkpt lat="52.972813" lon="12.991076">
        <time>2009-01-04T14:41:56Z</time>
      </trkpt>
      <trkpt lat="52.972845" lon="12.990732">
        <time>2009-01-04T14:42:04Z</time>
      </trkpt>
      <trkpt lat="52.972888" lon="12.990561">
        <time>2009-01-04T14:42:09Z</time>
      </trkpt>
      <trkpt lat="52.972834" lon="12.990303">
        <time>2009-01-04T14:42:15Z</time>
      </trkpt>
      <trkpt lat="52.972673" lon="12.990131">
        <time>2009-01-04T14:42:23Z</time>
      </trkpt>
      <trkpt lat="52.972555" lon="12.990067">
        <time>2009-01-04T14:42:28Z</time>
      </trkpt>
      <trkpt lat="52.972448" lon="12.990024">
        <time>2009-01-04T14:42:32Z</time>
      </trkpt>
      <trkpt lat="52.972255" lon="12.989960">
        <time>2009-01-04T14:42:40Z</time>
      </trkpt>
      <trkpt lat="52.972062" lon="12.989938">
        <time>2009-01-04T14:42:48Z</time>
      </trkpt>
      <trkpt lat="52.971965" lon="12.989917">
        <time>2009-01-04T14:42:52Z</time>
      </trkpt>
      <trkpt lat="52.971804" lon="12.989767">
        <time>2009-01-04T14:42:59Z</time>
      </trkpt>
      <trkpt lat="52.971740" lon="12.989659">
        <time>2009-01-04T14:43:03Z</time>
      </trkpt>
      <trkpt lat="52.971997" lon="12.989316">
        <time>2009-01-04T14:43:16Z</time>
      </trkpt>
      <trkpt lat="52.972083" lon="12.989230">
        <time>2009-01-04T14:43:20Z</time>
      </trkpt>
      <trkpt lat="52.972158" lon="12.989123">
        <time>2009-01-04T14:43:24Z</time>
      </trkpt>
      <trkpt lat="52.972212" lon="12.988973">
        <time>2009-01-04T14:43:28Z</time>
      </trkpt>
      <trkpt lat="52.972319" lon="12.988715">
        <time>2009-01-04T14:43:36Z</time>
      </trkpt>
      <trkpt lat="52.972244" lon="12.988586">
        <time>2009-01-04T14:43:40Z</time>
      </trkpt>
      <trkpt lat="52.972051" lon="12.988458">
        <time>2009-01-04T14:43:48Z</time>
      </trkpt>
      <trkpt lat="52.971944" lon="12.988307">
        <time>2009-01-04T14:43:54Z</time>
      </trkpt>
      <trkpt lat="52.971761" lon="12.988200">
        <time>2009-01-04T14:44:02Z</time>
      </trkpt>
      <trkpt lat="52.971718" lon="12.988050">
        <time>2009-01-04T14:44:06Z</time>
      </trkpt>
      <trkpt lat="52.971514" lon="12.987943">
        <time>2009-01-04T14:44:14Z</time>
      </trkpt>
      <trkpt lat="52.971418" lon="12.987878">
        <time>2009-01-04T14:44:19Z</time>
      </trkpt>
      <trkpt lat="52.971203" lon="12.987707">
        <time>2009-01-04T14:44:28Z</time>
      </trkpt>
      <trkpt lat="52.971117" lon="12.987642">
        <time>2009-01-04T14:44:32Z</time>
      </trkpt>
      <trkpt lat="52.970999" lon="12.987642">
        <time>2009-01-04T14:44:37Z</time>
      </trkpt>
      <trkpt lat="52.970817" lon="12.987492">
        <time>2009-01-04T14:44:45Z</time>
      </trkpt>
      <trkpt lat="52.970721" lon="12.987406">
        <time>2009-01-04T14:44:49Z</time>
      </trkpt>
      <trkpt lat="52.970549" lon="12.987492">
        <time>2009-01-04T14:44:56Z</time>
      </trkpt>
      <trkpt lat="52.971053" lon="12.987964">
        <time>2009-01-04T14:45:19Z</time>
      </trkpt>
      <trkpt lat="52.970742" lon="12.988479">
        <time>2009-01-04T14:45:37Z</time>
      </trkpt>
      <trkpt lat="52.970474" lon="12.988586">
        <time>2009-01-04T14:45:48Z</time>
      </trkpt>
      <trkpt lat="52.970442" lon="12.988436">
        <time>2009-01-04T14:45:52Z</time>
      </trkpt>
      <trkpt lat="52.970409" lon="12.988586">
        <time>2009-01-04T14:45:56Z</time>
      </trkpt>
      <trkpt lat="52.970495" lon="12.988651">
        <time>2009-01-04T14:46:00Z</time>
      </trkpt>
      <trkpt lat="52.970592" lon="12.988672">
        <time>2009-01-04T14:46:03Z</time>
      </trkpt>
      <trkpt lat="52.970656" lon="12.988565">
        <time>2009-01-04T14:46:07Z</time>
      </trkpt>
    </trkseg>
  </trk>

</gpx>
